Time;durP1;ratioP1;P1;durP2;ratioP2;P2;SDS_P1;SDS_P2;PMS_P1;PMS_P2;Temp;Humidity;BMP_temperature;BMP_pressure;BME280_temperature;BME280_humidity;BME280_pressure;Samples;Min_cycle;Max_cycle;Signal;HPM_P1;HPM_P2
2023/01/30 00:01:12;;;;;;;6.32;4.90;;;;;;;12.46;45.78;100794.09;5112424;28;20040;-62
2023/01/30 00:03:40;;;;;;;7.43;5.47;;;;;;;12.45;45.71;100789.69;5112341;28;20048;-62
2023/01/30 00:06:09;;;;;;;6.25;5.20;;;;;;;12.40;45.70;100789.97;5112540;28;20419;-61
2023/01/30 00:08:38;;;;;;;7.00;4.95;;;;;;;12.38;45.64;100786.53;5112098;28;20097;-61
2023/01/30 00:11:07;;;;;;;6.85;5.00;;;;;;;12.36;46.02;100777.72;5112518;28;20070;-62
2023/01/30 00:13:37;;;;;;;7.03;5.20;;;;;;;12.33;45.47;100778.75;5112286;28;20047;-61
2023/01/30 00:16:08;;;;;;;6.00;4.90;;;;;;;12.32;45.53;100781.53;5113507;28;20078;-60
2023/01/30 00:18:37;;;;;;;7.00;5.38;;;;;;;12.30;45.37;100783.44;5114458;28;20082;-60
2023/01/30 00:21:07;;;;;;;6.30;4.85;;;;;;;12.27;45.78;100776.47;5114283;28;20054;-60
2023/01/30 00:23:36;;;;;;;7.25;5.18;;;;;;;12.25;45.73;100774.81;5114220;28;20160;-62
2023/01/30 00:26:05;;;;;;;7.38;5.28;;;;;;;12.22;45.75;100781.19;5114755;28;20043;-60
2023/01/30 00:28:34;;;;;;;6.60;5.15;;;;;;;12.21;45.16;100782.16;5113134;28;20127;-61
2023/01/30 00:31:04;;;;;;;6.65;4.82;;;;;;;12.20;45.14;100772.41;5112039;28;20067;-60
2023/01/30 00:33:32;;;;;;;7.45;5.13;;;;;;;12.21;45.64;100762.56;5112206;28;20055;-60
2023/01/30 00:36:01;;;;;;;7.32;5.13;;;;;;;12.24;45.76;100773.09;5111889;28;20519;-62
2023/01/30 00:38:30;;;;;;;6.15;4.65;;;;;;;12.32;45.95;100773.50;5111846;28;20071;-60
2023/01/30 00:40:58;;;;;;;6.43;4.97;;;;;;;12.41;46.26;100772.94;5112076;28;20517;-61
2023/01/30 00:49:06;;;;;;;;;;;;;;;12.71;46.14;100767.56;5112180;28;20043;-61
2023/01/30 00:51:34;;;;;;;5.78;4.25;;;;;;;12.80;46.02;100763.47;5111897;28;20373;-62
2023/01/30 00:54:02;;;;;;;6.15;4.40;;;;;;;12.88;46.15;100756.69;5111852;28;20066;-61
2023/01/30 00:56:30;;;;;;;5.80;4.10;;;;;;;12.94;45.91;100755.47;5111845;28;20043;-62
2023/01/30 00:58:59;;;;;;;6.35;4.70;;;;;;;13.00;45.70;100756.88;5111930;28;20051;-62
2023/01/30 01:01:28;;;;;;;6.13;4.40;;;;;;;13.03;45.44;100757.56;5112303;28;20043;-62
2023/01/30 01:03:57;;;;;;;5.55;4.35;;;;;;;13.04;45.58;100748.59;5112561;28;20051;-61
2023/01/30 01:06:25;;;;;;;5.63;4.07;;;;;;;13.04;45.31;100751.25;5112063;28;20411;-62
2023/01/30 01:08:53;;;;;;;5.03;4.03;;;;;;;13.05;45.37;100741.41;5111617;28;20478;-61
2023/01/30 01:11:24;;;;;;;6.00;4.47;;;;;;;13.02;45.36;100745.13;5111676;28;20044;-62
2023/01/30 01:13:53;;;;;;;6.18;4.50;;;;;;;13.01;45.22;100742.53;5111675;28;20054;-60
2023/01/30 01:16:22;;;;;;;6.00;4.35;;;;;;;12.99;45.14;100745.31;5113752;28;20554;-61
2023/01/30 01:18:52;;;;;;;7.25;4.68;;;;;;;12.94;45.09;100739.41;5115033;28;20044;-60
2023/01/30 01:21:21;;;;;;;6.40;5.03;;;;;;;12.93;45.07;100734.13;5115204;28;20531;-62
2023/01/30 01:23:51;;;;;;;6.07;4.57;;;;;;;12.93;45.07;100734.13;5115158;28;20118;-62
2023/01/30 01:26:19;;;;;;;6.38;4.63;;;;;;;12.85;45.13;100727.44;5115222;28;20470;-61
2023/01/30 01:28:48;;;;;;;6.72;4.97;;;;;;;12.86;44.74;100722.94;5115589;28;20051;-61
2023/01/30 01:31:17;;;;;;;6.75;4.72;;;;;;;12.80;44.80;100718.81;5115361;28;20115;-61
2023/01/30 01:33:45;;;;;;;6.03;4.70;;;;;;;12.79;44.76;100721.59;5115004;28;20043;-62
2023/01/30 01:36:14;;;;;;;6.57;4.45;;;;;;;12.76;44.63;100719.13;5115090;28;20103;-62
2023/01/30 01:39:03;;;;;;;6.63;4.80;;;;;;;12.72;44.68;100717.56;5114626;28;20065;-62
2023/01/30 01:41:30;;;;;;;5.82;4.38;;;;;;;12.71;44.58;100713.19;5114915;28;20101;-61
2023/01/30 01:44:05;;;;;;;6.00;4.70;;;;;;;12.67;44.57;100714.34;5114920;28;20536;-61
2023/01/30 01:46:35;;;;;;;6.47;4.55;;;;;;;12.63;44.55;100700.25;5114833;28;20126;-60
2023/01/30 01:49:07;;;;;;;6.45;4.90;;;;;;;12.60;44.53;100700.47;5114858;28;20052;-60
2023/01/30 01:51:42;;;;;;;6.80;4.78;;;;;;;12.55;44.38;100687.38;5114601;28;20396;-62
2023/01/30 01:54:15;;;;;;;6.20;4.72;;;;;;;12.54;44.30;100690.13;5114707;28;20051;-60
2023/01/30 01:56:47;;;;;;;6.95;4.93;;;;;;;12.48;44.26;100688.69;5115498;28;20047;-61
2023/01/30 01:59:21;;;;;;;6.28;5.03;;;;;;;12.46;44.06;100674.56;5115264;28;20477;-62
2023/01/30 02:01:50;;;;;;;7.28;5.20;;;;;;;12.44;44.13;100670.25;5114323;28;20103;-61
2023/01/30 02:05:00;;;;;;;6.43;5.13;;;;;;;12.43;43.89;100677.41;5114279;28;20044;-63
2023/01/30 02:07:09;;;;;;;7.00;4.90;;;;;;;12.39;43.81;100670.53;5114213;28;20053;-62
2023/01/30 02:09:40;;;;;;;5.97;4.70;;;;;;;12.35;44.04;100660.94;5114165;28;20048;-61
2023/01/30 02:12:11;;;;;;;7.53;5.43;;;;;;;12.34;43.67;100661.91;5114255;28;20064;-62
2023/01/30 02:14:40;;;;;;;6.97;5.05;;;;;;;12.30;43.95;100657.72;5114205;28;20066;-60
2023/01/30 02:17:08;;;;;;;7.07;5.07;;;;;;;12.27;43.54;100649.88;5114106;28;20039;-62
2023/01/30 02:19:47;;;;;;;7.82;5.40;;;;;;;12.24;43.58;100650.06;5113849;28;20040;-61
2023/01/30 02:22:36;;;;;;;6.80;5.25;;;;;;;12.20;43.90;100643.19;5114149;28;20131;-61
2023/01/30 02:25:38;;;;;;;7.57;5.22;;;;;;;12.17;43.54;100644.25;5114848;28;20058;-62
2023/01/30 02:28:50;;;;;;;7.03;5.35;;;;;;;12.14;43.29;100638.19;5097892;28;20455;-62
2023/01/30 02:31:31;;;;;;;6.55;4.80;;;;;;;12.10;43.52;100634.84;5114678;28;20134;-62
2023/01/30 02:34:12;;;;;;;6.47;4.65;;;;;;;12.08;44.13;100634.09;5115068;28;20044;-66
2023/01/30 02:36:48;;;;;;;5.95;4.68;;;;;;;12.03;44.01;100620.13;5114823;28;20050;-61
2023/01/30 02:39:26;;;;;;;7.18;5.20;;;;;;;12.01;44.09;100627.38;5113770;28;20129;-61
2023/01/30 02:42:04;;;;;;;6.35;4.97;;;;;;;11.95;44.68;100620.59;5113528;28;20043;-63
2023/01/30 02:44:40;;;;;;;7.63;5.45;;;;;;;11.94;44.27;100618.00;5113842;28;20075;-60
2023/01/30 02:47:15;;;;;;;6.95;5.18;;;;;;;11.92;44.28;100620.78;5114274;28;20089;-59
2023/01/30 02:49:48;;;;;;;6.50;4.97;;;;;;;11.89;44.64;100607.59;5115843;28;20085;-61
2023/01/30 02:52:17;;;;;;;7.10;5.03;;;;;;;11.85;44.56;100606.06;5116393;28;20043;-62
2023/01/30 02:54:45;;;;;;;7.15;5.70;;;;;;;11.83;44.05;100594.59;5116246;28;20047;-59
2023/01/30 02:57:19;;;;;;;7.80;5.47;;;;;;;11.80;44.30;100597.47;5116679;28;20481;-61
2023/01/30 02:59:52;;;;;;;7.55;5.28;;;;;;;11.76;44.20;100588.72;5115810;28;20047;-61
2023/01/30 03:02:41;;;;;;;7.43;5.60;;;;;;;11.76;44.51;100595.88;5114859;28;20039;-60
2023/01/30 03:05:37;;;;;;;7.30;5.30;;;;;;;11.73;43.85;100593.41;5115041;28;20306;-61
2023/01/30 03:08:17;;;;;;;7.32;5.43;;;;;;;11.69;43.75;100586.53;5113197;28;20501;-61
2023/01/30 03:10:52;;;;;;;8.00;5.93;;;;;;;11.70;44.03;100585.56;5114551;28;20071;-62
2023/01/30 03:13:29;;;;;;;7.47;5.45;;;;;;;11.72;44.42;100586.34;5114222;28;20053;-60
2023/01/30 03:16:03;;;;;;;7.82;5.03;;;;;;;11.78;44.71;100587.78;5113920;28;20046;-62
2023/01/30 03:18:33;;;;;;;6.25;4.60;;;;;;;11.85;45.00;100582.00;5113969;28;20044;-60
2023/01/30 03:21:05;;;;;;;7.10;4.97;;;;;;;11.92;45.13;100591.38;5114052;28;20047;-61
2023/01/30 03:23:33;;;;;;;6.47;4.80;;;;;;;12.02;45.05;100579.16;5113633;28;20093;-61
2023/01/30 03:26:05;;;;;;;6.78;5.22;;;;;;;12.12;44.92;100587.50;5113226;28;20472;-61
2023/01/30 03:28:35;;;;;;;6.70;4.70;;;;;;;12.20;44.94;100579.84;5113319;28;20058;-60
2023/01/30 03:31:03;;;;;;;5.43;4.32;;;;;;;12.31;44.79;100580.06;5114310;28;20040;-62
2023/01/30 03:33:32;;;;;;;6.78;4.68;;;;;;;12.41;44.76;100576.81;5114735;28;20072;-61
2023/01/30 03:36:00;;;;;;;6.88;4.80;;;;;;;12.50;44.73;100571.72;5113680;28;20043;-62
2023/01/30 03:38:29;;;;;;;7.82;4.82;;;;;;;12.59;44.51;100565.81;5114013;28;20114;-61
2023/01/30 03:40:57;;;;;;;6.00;4.50;;;;;;;12.69;44.31;100562.53;5113914;28;20484;-61
2023/01/30 03:43:25;;;;;;;6.28;4.32;;;;;;;12.72;44.28;100562.34;5113643;28;20089;-65
2023/01/30 03:45:53;;;;;;;6.03;4.68;;;;;;;12.75;44.19;100562.16;5114516;28;20059;-62
2023/01/30 03:48:21;;;;;;;6.32;4.85;;;;;;;12.76;44.03;100555.84;5114252;28;20047;-61
2023/01/30 03:50:51;;;;;;;6.05;4.38;;;;;;;12.77;44.22;100563.78;5114048;28;20050;-63
2023/01/30 03:53:19;;;;;;;6.75;4.78;;;;;;;12.77;44.00;100563.78;5113952;28;20048;-61
2023/01/30 03:55:47;;;;;;;7.00;4.90;;;;;;;12.76;44.15;100563.88;5114289;28;20051;-61
2023/01/30 03:58:16;;;;;;;6.45;4.97;;;;;;;12.74;43.89;100552.38;5114454;28;20039;-62
2023/01/30 04:00:44;;;;;;;7.35;4.68;;;;;;;12.72;43.95;100555.16;5114282;28;20054;-60
2023/01/30 04:03:13;;;;;;;6.00;4.85;;;;;;;12.70;44.04;100550.88;5114384;28;20051;-61
2023/01/30 04:05:42;;;;;;;6.88;4.88;;;;;;;12.66;43.96;100552.03;5113944;28;20048;-61
2023/01/30 04:08:12;;;;;;;5.93;4.85;;;;;;;12.64;43.94;100548.56;5113724;28;20044;-62
2023/01/30 04:10:40;;;;;;;7.07;4.93;;;;;;;12.60;43.82;100546.09;5113323;28;20062;-62
2023/01/30 04:13:08;;;;;;;8.02;5.25;;;;;;;12.57;43.89;100543.63;5113548;28;20035;-61
2023/01/30 04:15:36;;;;;;;6.65;5.20;;;;;;;12.52;43.86;100536.84;5113329;28;20047;-61
2023/01/30 04:18:05;;;;;;;6.40;4.90;;;;;;;12.50;43.65;100533.41;5113542;28;20051;-63
2023/01/30 04:20:33;;;;;;;7.40;5.28;;;;;;;12.46;43.73;100532.75;5113934;28;20126;-61
2023/01/30 04:23:01;;;;;;;6.57;5.10;;;;;;;12.43;43.61;100537.44;5113673;28;20048;-64
2023/01/30 04:25:30;;;;;;;7.57;5.43;;;;;;;12.39;43.48;100541.28;5113196;28;20069;-63
2023/01/30 04:27:58;;;;;;;7.13;5.40;;;;;;;12.31;43.54;100523.88;5113380;28;20127;-62
2023/01/30 04:30:27;;;;;;;7.43;5.50;;;;;;;12.27;43.60;100525.03;5112693;28;20044;-61
2023/01/30 04:32:55;;;;;;;7.95;5.60;;;;;;;12.27;43.36;100526.84;5114066;28;20090;-61
2023/01/30 04:35:23;;;;;;;7.38;5.32;;;;;;;12.26;43.46;100527.81;5113297;28;20078;-61
2023/01/30 04:37:51;;;;;;;7.72;5.93;;;;;;;12.23;43.50;100525.31;5113542;28;20047;-60
2023/01/30 04:40:22;;;;;;;6.97;5.40;;;;;;;12.24;43.59;100524.34;5112186;28;20096;-62
2023/01/30 04:42:51;;;;;;;7.45;5.25;;;;;;;12.28;43.76;100509.84;5112043;28;20048;-62
2023/01/30 04:45:20;;;;;;;7.85;5.75;;;;;;;12.33;44.09;100503.25;5112256;28;20552;-62
2023/01/30 04:47:48;;;;;;;7.47;5.32;;;;;;;12.41;44.12;100499.22;5112283;28;20047;-62
2023/01/30 04:50:16;;;;;;;6.78;5.28;;;;;;;12.49;44.00;100495.09;5112603;28;20515;-62
2023/01/30 04:52:44;;;;;;;7.85;5.32;;;;;;;12.57;43.96;100492.81;5116009;28;20047;-61
2023/01/30 04:55:12;;;;;;;8.00;5.70;;;;;;;12.64;43.70;100493.25;5115933;28;20047;-61
2023/01/30 04:57:40;;;;;;;7.13;5.28;;;;;;;12.74;43.79;100504.19;5115831;28;20047;-60
2023/01/30 05:00:11;;;;;;;7.40;5.30;;;;;;;12.80;43.67;100499.31;5116272;28;20047;-60
2023/01/30 05:02:40;;;;;;;7.45;5.30;;;;;;;12.88;43.68;100491.66;5117198;28;20059;-62
2023/01/30 05:05:09;;;;;;;6.57;5.00;;;;;;;12.95;43.47;100492.13;5117040;28;20039;-62
2023/01/30 05:07:37;;;;;;;7.50;5.38;;;;;;;13.04;43.29;100490.66;5116648;28;20051;-63
2023/01/30 05:10:06;;;;;;;7.45;5.13;;;;;;;13.11;43.43;100489.25;5116397;28;20097;-62
2023/01/30 05:12:34;;;;;;;8.10;5.18;;;;;;;13.18;43.21;100493.25;5116225;28;20100;-61
2023/01/30 05:15:03;;;;;;;7.32;5.00;;;;;;;13.25;43.26;100488.38;5116219;28;20489;-61
2023/01/30 05:17:34;;;;;;;6.85;5.28;;;;;;;13.30;43.00;100494.25;5116518;28;20047;-62
2023/01/30 05:20:03;;;;;;;7.05;5.15;;;;;;;13.39;43.09;100490.97;5116320;28;20043;-62
2023/01/30 05:22:32;;;;;;;6.50;5.20;;;;;;;13.47;43.00;100496.66;5116479;28;20048;-62
2023/01/30 05:25:00;;;;;;;7.15;5.13;;;;;;;13.55;43.03;100499.69;5116076;28;20039;-61
2023/01/30 05:27:28;;;;;;;6.97;4.85;;;;;;;13.65;42.91;100497.22;5115823;28;20051;-63
2023/01/30 05:29:56;;;;;;;6.18;4.68;;;;;;;13.72;42.88;100490.50;5115735;28;20050;-62
2023/01/30 05:32:26;;;;;;;7.00;4.97;;;;;;;13.81;42.71;100486.31;5115730;28;20074;-63
2023/01/30 05:34:55;;;;;;;6.75;4.90;;;;;;;13.89;42.80;100483.94;5115639;28;20043;-61
2023/01/30 05:37:24;;;;;;;6.47;4.75;;;;;;;13.95;42.61;100478.13;5115646;28;20447;-61
2023/01/30 05:39:52;;;;;;;7.45;5.38;;;;;;;13.98;42.58;100478.78;5115931;28;20078;-61
2023/01/30 05:42:20;;;;;;;7.15;5.20;;;;;;;14.01;42.41;100477.72;5115874;28;20075;-61
2023/01/30 05:44:48;;;;;;;6.88;5.15;;;;;;;14.03;42.67;100470.41;5116221;28;20048;-62
2023/01/30 05:47:17;;;;;;;7.57;5.30;;;;;;;14.06;42.51;100459.47;5115967;28;20039;-62
2023/01/30 05:49:45;;;;;;;6.63;5.30;;;;;;;14.08;42.53;100470.94;5115894;28;20126;-60
2023/01/30 05:52:14;;;;;;;6.63;5.00;;;;;;;14.09;42.41;100472.69;5115387;28;20054;-62
2023/01/30 05:54:42;;;;;;;6.55;4.80;;;;;;;14.11;42.26;100467.19;5116482;28;20122;-61
2023/01/30 05:57:10;;;;;;;7.35;5.28;;;;;;;14.14;42.25;100475.88;5116092;28;20044;-66
2023/01/30 05:59:39;;;;;;;7.18;4.88;;;;;;;14.15;42.19;100474.91;5115884;28;20043;-61
2023/01/30 06:02:07;;;;;;;7.43;5.18;;;;;;;14.19;42.16;100476.41;5114185;28;20133;-61
2023/01/30 06:04:38;;;;;;;6.97;4.88;;;;;;;14.23;42.35;100472.53;5115441;28;20112;-61
2023/01/30 06:07:06;;;;;;;9.10;5.30;;;;;;;14.27;42.17;100484.75;5116157;28;20044;-61
2023/01/30 06:09:35;;;;;;;6.95;5.28;;;;;;;14.35;42.17;100480.66;5116567;28;20126;-60
2023/01/30 06:12:04;;;;;;;6.05;4.80;;;;;;;14.38;42.03;100469.69;5116573;28;20062;-59
2023/01/30 06:14:35;;;;;;;7.28;5.00;;;;;;;14.40;42.05;100468.63;5115996;28;20108;-60
2023/01/30 06:17:03;;;;;;;6.65;4.78;;;;;;;14.46;42.04;100467.34;5115944;28;20067;-61
2023/01/30 06:19:31;;;;;;;6.32;4.88;;;;;;;14.47;42.05;100464.53;5114776;28;20122;-69
2023/01/30 06:21:59;;;;;;;6.47;4.97;;;;;;;14.49;41.80;100462.63;5114590;27;20112;-61
2023/01/30 06:24:27;;;;;;;6.45;5.00;;;;;;;14.48;41.92;100458.25;5114794;28;20074;-62
2023/01/30 06:26:58;;;;;;;7.13;4.90;;;;;;;14.47;41.91;100474.44;5114528;28;20093;-62
2023/01/30 06:29:26;;;;;;;7.28;4.97;;;;;;;14.45;41.99;100465.63;5114512;28;20040;-62
2023/01/30 06:31:54;;;;;;;6.93;5.22;;;;;;;14.41;41.92;100482.91;5114575;28;20044;-60
2023/01/30 06:34:22;;;;;;;7.18;5.28;;;;;;;14.38;41.82;100480.44;5111888;28;20044;-62
2023/01/30 06:36:50;;;;;;;7.72;4.82;;;;;;;14.32;41.98;100479.06;5113830;28;20132;-61
2023/01/30 06:39:19;;;;;;;7.57;5.30;;;;;;;14.27;41.85;100465.97;5113746;28;20499;-60
2023/01/30 06:41:47;;;;;;;6.30;5.22;;;;;;;14.21;41.71;100463.75;5113615;28;20093;-62
2023/01/30 06:44:16;;;;;;;7.07;5.32;;;;;;;14.17;41.80;100456.00;5114793;28;20043;-62
2023/01/30 06:46:44;;;;;;;9.07;5.57;;;;;;;14.10;41.54;100457.44;5113531;28;20104;-61
2023/01/30 06:49:13;;;;;;;7.55;5.47;;;;;;;14.04;41.70;100446.16;5115038;28;20122;-60
2023/01/30 06:51:41;;;;;;;7.93;5.63;;;;;;;13.98;41.65;100448.41;5114952;28;20421;-62
2023/01/30 06:54:09;;;;;;;8.30;5.55;;;;;;;13.93;41.61;100462.16;5114502;28;20043;-62
2023/01/30 06:56:37;;;;;;;6.75;5.47;;;;;;;13.85;41.53;100452.94;5114813;28;20493;-62
2023/01/30 06:59:05;;;;;;;8.27;5.60;;;;;;;13.82;41.50;100454.03;5114686;28;20518;-62
2023/01/30 07:01:36;;;;;;;7.88;5.80;;;;;;;13.75;41.49;100450.91;5114873;28;20050;-60
2023/01/30 07:04:04;;;;;;;8.38;6.32;;;;;;;13.70;41.51;100449.50;5114732;28;20051;-61
2023/01/30 07:06:32;;;;;;;8.60;6.50;;;;;;;13.61;41.27;100439.44;5116574;27;20040;-60
2023/01/30 07:09:00;;;;;;;7.70;5.78;;;;;;;13.53;41.18;100431.94;5101512;28;20131;-61
2023/01/30 07:11:30;;;;;;;9.48;6.50;;;;;;;13.53;41.24;100449.84;5094392;28;20040;-60
2023/01/30 07:13:58;;;;;;;7.43;5.80;;;;;;;13.48;41.14;100457.31;5094199;28;20461;-60
2023/01/30 07:16:28;;;;;;;8.65;6.38;;;;;;;13.43;41.33;100454.97;5094886;28;20040;-61
2023/01/30 07:18:58;;;;;;;8.07;5.90;;;;;;;13.39;41.36;100448.94;5094407;28;20044;-61
2023/01/30 07:21:26;;;;;;;8.88;5.72;;;;;;;13.41;41.72;100451.53;5093179;28;20048;-60
2023/01/30 07:23:54;;;;;;;8.75;5.78;;;;;;;13.45;41.71;100450.38;5102763;28;20043;-61
2023/01/30 07:26:23;;;;;;;7.57;6.13;;;;;;;13.46;41.90;100433.31;5113206;28;20039;-63
2023/01/30 07:28:52;;;;;;;8.48;5.95;;;;;;;13.55;41.79;100440.72;5111961;28;20462;-64
2023/01/30 07:31:20;;;;;;;8.68;6.22;;;;;;;13.62;41.67;100438.50;5109346;28;20047;-59
2023/01/30 07:33:53;;;;;;;8.13;5.88;;;;;;;13.67;41.78;100450.59;5115714;27;20074;-58
2023/01/30 07:36:42;;;;;;;8.27;5.88;;;;;;;13.73;41.65;100447.47;5133145;27;20059;-61
2023/01/30 07:39:35;;;;;;;8.32;6.18;;;;;;;13.81;41.50;100448.78;5113697;28;20047;-60
2023/01/30 07:42:35;;;;;;;8.38;6.25;;;;;;;13.89;41.49;100443.69;5113264;28;20082;-61
2023/01/30 07:45:43;;;;;;;7.93;6.00;;;;;;;14.00;41.67;100435.78;5113019;28;20062;-60
2023/01/30 07:48:45;;;;;;;7.35;5.45;;;;;;;14.06;41.49;100434.47;5113140;28;20092;-61
2023/01/30 07:51:14;;;;;;;7.63;5.57;;;;;;;14.14;41.58;100424.91;5111702;28;20118;-61
2023/01/30 07:53:43;;;;;;;6.93;5.78;;;;;;;14.21;41.38;100414.59;5112251;28;20050;-59
2023/01/30 07:56:17;;;;;;;8.15;5.65;;;;;;;14.29;41.53;100417.59;5112144;28;20047;-59
2023/01/30 07:58:46;;;;;;;8.75;5.72;;;;;;;14.36;41.41;100418.81;5112178;28;20047;-61
2023/01/30 08:01:14;;;;;;;7.38;5.50;;;;;;;14.44;41.45;100420.94;5109633;28;20063;-61
2023/01/30 08:03:45;;;;;;;7.95;5.22;;;;;;;14.49;41.43;100421.53;5111111;28;20127;-61
2023/01/30 08:06:13;;;;;;;7.78;5.68;;;;;;;14.52;41.19;100421.28;5110614;28;20047;-60
2023/01/30 08:08:43;;;;;;;7.15;5.25;;;;;;;14.56;41.07;100414.69;5111406;28;20109;-61
2023/01/30 08:11:12;;;;;;;7.88;6.03;;;;;;;14.56;41.03;100409.34;5111281;28;20043;-60
2023/01/30 08:13:40;;;;;;;8.25;6.05;;;;;;;14.56;41.25;100401.28;5112299;28;20093;-60
2023/01/30 08:16:08;;;;;;;9.43;5.88;;;;;;;14.54;41.01;100390.66;5111919;28;20472;-60
2023/01/30 08:18:36;;;;;;;8.30;6.10;;;;;;;14.53;41.06;100372.84;5112107;28;20062;-60
2023/01/30 08:21:06;;;;;;;8.15;5.65;;;;;;;14.50;41.07;100350.75;5111951;28;20058;-59
2023/01/30 08:23:35;;;;;;;7.90;5.40;;;;;;;14.47;40.98;100350.97;5111982;28;20044;-60
2023/01/30 08:26:06;;;;;;;9.43;6.13;;;;;;;14.43;41.10;100338.72;5115450;28;20043;-60
2023/01/30 08:28:34;;;;;;;9.07;6.47;;;;;;;14.40;41.13;100339.81;5116114;28;20096;-60
2023/01/30 08:31:02;;;;;;;9.95;6.07;;;;;;;14.37;41.03;100347.22;5116173;28;20395;-59
2023/01/30 08:33:30;;;;;;;8.82;6.07;;;;;;;14.31;40.98;100346.72;5116132;28;20064;-61
2023/01/30 08:35:58;;;;;;;8.60;6.13;;;;;;;14.28;40.98;100352.34;5115907;28;20101;-61
2023/01/30 08:38:27;;;;;;;8.57;6.28;;;;;;;14.23;40.85;100338.38;5116037;28;20074;-58
2023/01/30 08:40:56;;;;;;;9.82;6.85;;;;;;;14.19;40.94;100347.66;5116109;28;20043;-60
2023/01/30 08:43:27;;;;;;;8.40;6.63;;;;;;;14.14;40.83;100344.44;5115887;28;20047;-59
2023/01/30 08:45:55;;;;;;;9.55;7.47;;;;;;;14.11;40.88;100343.81;5115726;28;20040;-59
2023/01/30 08:48:24;;;;;;;9.68;7.05;;;;;;;14.06;40.65;100345.97;5115794;28;20131;-63
2023/01/30 08:50:53;;;;;;;11.18;7.45;;;;;;;14.02;40.79;100339.97;5115805;28;20077;-59
2023/01/30 08:53:21;;;;;;;9.65;7.05;;;;;;;13.97;40.70;100344.81;5115752;28;20058;-60
2023/01/30 08:55:50;;;;;;;11.30;7.60;;;;;;;13.93;40.65;100343.31;5115741;28;20085;-61
2023/01/30 08:58:19;;;;;;;9.07;7.10;;;;;;;13.88;40.62;100348.16;5115634;28;20047;-61
2023/01/30 09:00:49;;;;;;;9.45;6.82;;;;;;;13.81;40.50;100347.75;5115702;28;20090;-61
2023/01/30 09:03:18;;;;;;;9.65;7.20;;;;;;;13.78;40.48;100347.09;5115459;28;20070;-61
2023/01/30 09:05:46;;;;;;;10.23;7.35;;;;;;;13.74;40.24;100343.78;5115543;28;20055;-60
2023/01/30 09:08:14;;;;;;;10.35;7.60;;;;;;;13.71;40.24;100346.69;5115457;28;20040;-60
2023/01/30 09:10:42;;;;;;;11.60;7.32;;;;;;;13.66;40.24;100348.84;5114959;28;20443;-60
2023/01/30 09:13:12;;;;;;;10.35;7.07;;;;;;;13.58;40.27;100340.47;5115180;28;20079;-60
2023/01/30 09:15:42;;;;;;;12.30;8.38;;;;;;;13.55;40.38;100341.56;5115300;28;20039;-60
2023/01/30 09:18:12;;;;;;;9.50;7.38;;;;;;;13.52;40.24;100343.63;5115438;28;20559;-60
2023/01/30 09:20:40;;;;;;;9.85;7.07;;;;;;;13.48;40.35;100342.09;5115123;28;20056;-60
2023/01/30 09:23:08;;;;;;;10.90;7.70;;;;;;;13.44;40.65;100333.44;5115010;28;20059;-59
2023/01/30 09:25:37;;;;;;;11.07;7.93;;;;;;;13.39;40.60;100324.84;5115040;28;20044;-62
2023/01/30 09:28:05;;;;;;;10.32;7.63;;;;;;;13.33;40.36;100320.81;5115104;28;20040;-61
2023/01/30 09:30:33;;;;;;;11.68;8.15;;;;;;;13.30;40.75;100321.00;5115147;28;20085;-60
2023/01/30 09:33:02;;;;;;;11.65;8.15;;;;;;;13.25;40.45;100312.44;5115021;28;20047;-60
2023/01/30 09:35:31;;;;;;;10.55;8.02;;;;;;;13.22;40.90;100301.94;5114663;28;20045;-60
2023/01/30 09:38:00;;;;;;;12.93;7.75;;;;;;;13.18;40.84;100300.41;5114192;28;20070;-60
2023/01/30 09:40:32;;;;;;;10.68;7.80;;;;;;;13.13;40.62;100292.72;5114908;28;20044;-61
2023/01/30 09:43:32;;;;;;;13.23;8.25;;;;;;;13.10;40.49;100292.91;5114628;28;20044;-60
2023/01/30 09:46:11;;;;;;;11.30;8.10;;;;;;;13.07;40.93;100290.44;5114694;28;20545;-60
2023/01/30 09:48:52;;;;;;;12.23;8.63;;;;;;;13.03;41.08;100288.97;5114696;28;20044;-59
2023/01/30 09:51:42;;;;;;;11.27;7.97;;;;;;;12.98;40.95;100272.34;5114521;28;20164;-60
2023/01/30 09:54:23;;;;;;;11.27;7.78;;;;;;;12.92;40.76;100264.72;5114456;28;20044;-59
2023/01/30 09:57:08;;;;;;;11.07;8.10;;;;;;;12.89;40.96;100262.28;5114271;28;20047;-61
2023/01/30 09:59:55;;;;;;;12.32;7.72;;;;;;;12.84;40.94;100261.75;5114535;28;20431;-60
2023/01/30 10:02:46;;;;;;;11.07;8.18;;;;;;;12.81;40.82;100264.63;5114390;28;20097;-59
2023/01/30 10:05:15;;;;;;;10.43;7.53;;;;;;;12.76;40.94;100261.44;5114201;28;20059;-59
2023/01/30 10:07:56;;;;;;;11.20;7.65;;;;;;;12.72;40.98;100254.56;5114241;28;20051;-59
2023/01/30 10:10:40;;;;;;;10.07;7.50;;;;;;;12.70;41.14;100261.84;5113996;28;20056;-59
2023/01/30 10:13:33;;;;;;;10.88;7.45;;;;;;;12.65;41.14;100247.94;5114144;28;20063;-59
2023/01/30 10:16:09;;;;;;;11.07;7.97;;;;;;;12.62;41.08;100243.63;5114017;28;20051;-59
2023/01/30 10:18:59;;;;;;;10.68;7.57;;;;;;;12.60;41.10;100240.19;5114022;28;20052;-60
2023/01/30 10:21:41;;;;;;;12.05;7.45;;;;;;;12.58;41.23;100232.28;5113899;28;20071;-60
2023/01/30 10:24:25;;;;;;;11.90;8.27;;;;;;;12.56;41.48;100223.50;5113889;28;20460;-61
2023/01/30 10:26:54;;;;;;;10.80;8.18;;;;;;;12.53;41.08;100218.34;5113980;28;20051;-59
2023/01/30 10:29:28;;;;;;;10.80;7.75;;;;;;;12.53;41.20;100204.13;5114072;28;20463;-58
2023/01/30 10:32:01;;;;;;;11.13;7.47;;;;;;;12.51;40.97;100216.75;5113782;28;20052;-59
2023/01/30 10:34:34;;;;;;;11.18;7.35;;;;;;;12.48;41.34;100192.91;5113611;28;20420;-60
2023/01/30 10:37:08;;;;;;;11.73;7.80;;;;;;;12.45;41.59;100199.31;5113573;28;20077;-59
2023/01/30 10:39:45;;;;;;;10.80;7.60;;;;;;;12.43;41.25;100190.53;5113372;28;20096;-59
2023/01/30 10:42:29;;;;;;;10.75;7.72;;;;;;;12.37;41.56;100182.94;5113528;28;20043;-60
2023/01/30 10:45:03;;;;;;;11.70;7.57;;;;;;;12.34;41.49;100169.75;5113294;28;20047;-60
2023/01/30 10:47:45;;;;;;;12.68;7.95;;;;;;;12.32;41.50;100164.50;5113541;28;20071;-58
2023/01/30 10:50:17;;;;;;;10.30;7.55;;;;;;;12.27;41.26;100149.75;5113330;28;20047;-58
2023/01/30 10:52:55;;;;;;;11.13;7.45;;;;;;;12.23;41.20;100149.09;5113373;28;20043;-60
2023/01/30 10:55:31;;;;;;;13.10;8.15;;;;;;;12.18;41.46;100143.22;5113108;28;20039;-59
2023/01/30 10:58:18;;;;;;;11.65;7.95;;;;;;;12.16;41.59;100141.59;5113025;28;20085;-59
2023/01/30 11:00:53;;;;;;;12.43;8.05;;;;;;;12.10;40.96;100136.69;5113097;28;20050;-60
2023/01/30 11:03:28;;;;;;;10.68;7.55;;;;;;;12.08;41.28;100125.25;5113096;28;20044;-58
2023/01/30 11:06:01;;;;;;;10.95;7.78;;;;;;;12.03;41.13;100121.06;5113304;28;20050;-58
2023/01/30 11:08:32;;;;;;;11.25;7.90;;;;;;;11.99;40.97;100122.22;5112914;28;20063;-60
2023/01/30 11:11:21;;;;;;;12.38;8.05;;;;;;;11.98;41.10;100108.97;5112991;28;20039;-59
2023/01/30 11:13:49;;;;;;;11.55;7.75;;;;;;;11.98;41.35;100108.97;5113069;28;20055;-59
2023/01/30 11:16:18;;;;;;;11.40;7.38;;;;;;;12.00;41.69;100097.22;5112910;28;20067;-59
2023/01/30 11:18:48;;;;;;;12.50;8.13;;;;;;;12.07;41.85;100107.50;5112925;28;20048;-58
2023/01/30 11:21:37;;;;;;;10.05;7.15;;;;;;;12.16;42.14;100101.47;5112513;28;20047;-58
2023/01/30 11:24:15;;;;;;;11.02;7.28;;;;;;;12.26;42.07;100097.25;5112541;28;20079;-58
2023/01/30 11:26:45;;;;;;;13.07;7.68;;;;;;;12.31;42.08;100079.03;5112518;28;20058;-59
2023/01/30 11:29:24;;;;;;;10.75;7.13;;;;;;;12.41;42.06;100074.75;5112542;28;20485;-58
2023/01/30 11:31:53;;;;;;;9.35;7.22;;;;;;;12.50;42.03;100070.56;5112740;28;20134;-59
2023/01/30 11:34:23;;;;;;;11.02;7.10;;;;;;;12.60;42.00;100061.78;5095172;28;20396;-60
2023/01/30 11:36:52;;;;;;;10.43;6.85;;;;;;;12.71;41.81;100062.84;5112478;28;20130;-58
2023/01/30 11:39:23;;;;;;;10.80;7.28;;;;;;;12.79;41.90;100057.78;5112588;28;20051;-60
2023/01/30 11:42:03;;;;;;;12.45;7.72;;;;;;;12.90;41.81;100053.34;5112944;28;20092;-61
2023/01/30 11:44:34;;;;;;;10.13;7.07;;;;;;;13.00;41.61;100042.81;5112335;28;20434;-60
2023/01/30 11:47:04;;;;;;;10.75;7.22;;;;;;;13.08;41.43;100035.09;5112226;28;20081;-60
2023/01/30 11:49:36;;;;;;;10.35;7.15;;;;;;;13.16;41.43;100035.38;5112262;28;20040;-59
2023/01/30 11:52:21;;;;;;;10.63;6.80;;;;;;;13.23;41.24;100030.47;5112254;28;20040;-60